sensor_id;sensor_type;location;lat;lon;timestamp;pressure;altitude;pressure_sealevel;temperature;humidity
66668;BME280;57205;51.438;-2.006;2023-04-02T00:07:48;101263.31;;;8.07;100.00
66668;BME280;57205;51.438;-2.006;2023-04-02T00:10:34;101263.31;;;8.07;100.00
66668;BME280;57205;51.438;-2.006;2023-04-02T00:13:33;101265.16;;;8.07;100.00
66668;BME280;57205;51.438;-2.006;2023-04-02T00:16:00;101281.97;;;8.07;100.00
66668;BME280;57205;51.438;-2.006;2023-04-02T00:18:28;101281.41;;;8.05;100.00
66668;BME280;57205;51.438;-2.006;2023-04-02T00:23:28;101278.84;;;8.10;100.00
66668;BME280;57205;51.438;-2.006;2023-04-02T00:25:54;101277.72;;;8.06;100.00
66668;BME280;57205;51.438;-2.006;2023-04-02T00:28:21;101284.16;;;8.10;100.00
66668;BME280;57205;51.438;-2.006;2023-04-02T00:30:55;101282.78;;;8.08;100.00
66668;BME280;57205;51.438;-2.006;2023-04-02T00:33:26;101288.38;;;8.06;100.00
66668;BME280;57205;51.438;-2.006;2023-04-02T00:35:53;101290.31;;;8.11;100.00
66668;BME280;57205;51.438;-2.006;2023-04-02T00:38:29;101287.06;;;8.09;100.00
66668;BME280;57205;51.438;-2.006;2023-04-02T00:40:58;101292.16;;;8.10;100.00
66668;BME280;57205;51.438;-2.006;2023-04-02T00:43:28;101301.31;;;8.14;100.00
66668;BME280;57205;51.438;-2.006;2023-04-02T00:45:58;101293.69;;;8.06;100.00
66668;BME280;57205;51.438;-2.006;2023-04-02T00:51:13;101296.56;;;8.05;100.00
66668;BME280;57205;51.438;-2.006;2023-04-02T00:53:44;101307.03;;;8.06;100.00
66668;BME280;57205;51.438;-2.006;2023-04-02T00:58:52;101329.13;;;8.07;100.00
66668;BME280;57205;51.438;-2.006;2023-04-02T01:01:23;101326.69;;;8.05;100.00
66668;BME280;57205;51.438;-2.006;2023-04-02T01:03:57;101328.19;;;8.01;100.00
66668;BME280;57205;51.438;-2.006;2023-04-02T01:06:33;101329.84;;;8.02;100.00
66668;BME280;57205;51.438;-2.006;2023-04-02T01:15:13;101345.47;;;7.99;100.00
66668;BME280;57205;51.438;-2.006;2023-04-02T01:23:06;101340.50;;;8.02;100.00
66668;BME280;57205;51.438;-2.006;2023-04-02T01:25:47;101348.50;;;8.02;100.00
66668;BME280;57205;51.438;-2.006;2023-04-02T01:30:54;101349.28;;;8.03;100.00
66668;BME280;57205;51.438;-2.006;2023-04-02T01:33:27;101352.41;;;8.00;100.00
66668;BME280;57205;51.438;-2.006;2023-04-02T01:36:05;101353.91;;;7.96;100.00
66668;BME280;57205;51.438;-2.006;2023-04-02T01:38:50;101359.00;;;7.97;100.00
66668;BME280;57205;51.438;-2.006;2023-04-02T01:41:48;101367.59;;;7.99;100.00
66668;BME280;57205;51.438;-2.006;2023-04-02T01:44:42;101362.25;;;7.99;100.00
66668;BME280;57205;51.438;-2.006;2023-04-02T01:47:14;101367.16;;;8.02;100.00
66668;BME280;57205;51.438;-2.006;2023-04-02T01:49:42;101367.38;;;8.01;100.00
66668;BME280;57205;51.438;-2.006;2023-04-02T01:52:16;101369.22;;;8.00;100.00
66668;BME280;57205;51.438;-2.006;2023-04-02T01:54:42;101363.06;;;8.00;100.00
66668;BME280;57205;51.438;-2.006;2023-04-02T01:57:09;101367.59;;;7.99;100.00
66668;BME280;57205;51.438;-2.006;2023-04-02T01:59:36;101376.41;;;8.00;100.00
66668;BME280;57205;51.438;-2.006;2023-04-02T02:02:03;101376.41;;;8.00;100.00
66668;BME280;57205;51.438;-2.006;2023-04-02T02:04:31;101380.31;;;7.97;100.00
66668;BME280;57205;51.438;-2.006;2023-04-02T02:07:17;101383.56;;;7.99;100.00
66668;BME280;57205;51.438;-2.006;2023-04-02T02:09:45;101380.91;;;7.99;100.00
66668;BME280;57205;51.438;-2.006;2023-04-02T02:12:14;101384.97;;;8.02;100.00
66668;BME280;57205;51.438;-2.006;2023-04-02T02:14:46;101389.06;;;8.04;100.00
66668;BME280;57205;51.438;-2.006;2023-04-02T02:17:26;101394.97;;;8.06;100.00
66668;BME280;57205;51.438;-2.006;2023-04-02T02:19:57;101399.91;;;8.03;100.00
66668;BME280;57205;51.438;-2.006;2023-04-02T02:22:35;101400.38;;;8.00;100.00
66668;BME280;57205;51.438;-2.006;2023-04-02T02:25:12;101410.81;;;8.01;100.00
66668;BME280;57205;51.438;-2.006;2023-04-02T02:27:54;101418.03;;;8.01;100.00
66668;BME280;57205;51.438;-2.006;2023-04-02T02:30:30;101433.63;;;7.97;100.00
66668;BME280;57205;51.438;-2.006;2023-04-02T02:33:02;101427.00;;;7.88;100.00
66668;BME280;57205;51.438;-2.006;2023-04-02T02:35:41;101435.31;;;7.80;100.00
66668;BME280;57205;51.438;-2.006;2023-04-02T02:38:57;101439.22;;;7.77;100.00
66668;BME280;57205;51.438;-2.006;2023-04-02T02:41:07;101454.28;;;7.72;100.00
66668;BME280;57205;51.438;-2.006;2023-04-02T02:43:40;101448.81;;;7.67;100.00
66668;BME280;57205;51.438;-2.006;2023-04-02T02:46:07;101453.19;;;7.61;100.00
66668;BME280;57205;51.438;-2.006;2023-04-02T02:48:38;101458.66;;;7.66;100.00
66668;BME280;57205;51.438;-2.006;2023-04-02T02:51:08;101460.59;;;7.59;100.00
66668;BME280;57205;51.438;-2.006;2023-04-02T02:53:45;101466.50;;;7.61;100.00
66668;BME280;57205;51.438;-2.006;2023-04-02T02:56:12;101463.69;;;7.56;100.00
66668;BME280;57205;51.438;-2.006;2023-04-02T02:58:38;101458.34;;;7.56;100.00
66668;BME280;57205;51.438;-2.006;2023-04-02T03:01:05;101460.66;;;7.53;100.00
66668;BME280;57205;51.438;-2.006;2023-04-02T03:03:31;101463.53;;;7.51;100.00
66668;BME280;57205;51.438;-2.006;2023-04-02T03:06:07;101474.41;;;7.50;100.00
66668;BME280;57205;51.438;-2.006;2023-04-02T03:08:39;101481.81;;;7.48;100.00
66668;BME280;57205;51.438;-2.006;2023-04-02T03:11:23;101482.88;;;7.47;100.00
66668;BME280;57205;51.438;-2.006;2023-04-02T03:13:52;101477.53;;;7.47;100.00
66668;BME280;57205;51.438;-2.006;2023-04-02T03:16:35;101491.88;;;7.46;100.00
66668;BME280;57205;51.438;-2.006;2023-04-02T03:19:15;101496.38;;;7.45;100.00
66668;BME280;57205;51.438;-2.006;2023-04-02T03:21:51;101496.59;;;7.44;100.00
66668;BME280;57205;51.438;-2.006;2023-04-02T03:27:04;101500.44;;;7.48;100.00
66668;BME280;57205;51.438;-2.006;2023-04-02T03:29:33;101492.09;;;7.44;100.00
66668;BME280;57205;51.438;-2.006;2023-04-02T03:32:18;101492.47;;;7.48;100.00
66668;BME280;57205;51.438;-2.006;2023-04-02T03:34:52;101504.72;;;7.49;100.00
66668;BME280;57205;51.438;-2.006;2023-04-02T03:37:38;101510.28;;;7.47;100.00
66668;BME280;57205;51.438;-2.006;2023-04-02T03:40:13;101511.56;;;7.45;100.00
66668;BME280;57205;51.438;-2.006;2023-04-02T03:45:30;101525.66;;;7.45;100.00
66668;BME280;57205;51.438;-2.006;2023-04-02T03:48:06;101527.44;;;7.51;100.00
66668;BME280;57205;51.438;-2.006;2023-04-02T03:51:12;101535.06;;;7.48;100.00
66668;BME280;57205;51.438;-2.006;2023-04-02T03:53:36;101535.44;;;7.51;100.00
66668;BME280;57205;51.438;-2.006;2023-04-02T03:56:02;101541.59;;;7.52;100.00
66668;BME280;57205;51.438;-2.006;2023-04-02T03:58:37;101547.72;;;7.52;100.00
66668;BME280;57205;51.438;-2.006;2023-04-02T04:01:32;101542.00;;;7.49;100.00
66668;BME280;57205;51.438;-2.006;2023-04-02T04:04:07;101542.47;;;7.46;100.00
66668;BME280;57205;51.438;-2.006;2023-04-02T04:06:35;101552.66;;;7.49;100.00
66668;BME280;57205;51.438;-2.006;2023-04-02T04:09:17;101550.59;;;7.51;100.00
66668;BME280;57205;51.438;-2.006;2023-04-02T04:11:47;101549.34;;;7.53;100.00
66668;BME280;57205;51.438;-2.006;2023-04-02T04:14:31;101550.75;;;7.56;100.00
66668;BME280;57205;51.438;-2.006;2023-04-02T04:19:43;101554.91;;;7.52;100.00
66668;BME280;57205;51.438;-2.006;2023-04-02T04:22:15;101558.75;;;7.56;100.00
66668;BME280;57205;51.438;-2.006;2023-04-02T04:24:42;101565.69;;;7.57;100.00
66668;BME280;57205;51.438;-2.006;2023-04-02T04:27:41;101567.53;;;7.56;100.00
66668;BME280;57205;51.438;-2.006;2023-04-02T04:32:58;101567.75;;;7.55;100.00
66668;BME280;57205;51.438;-2.006;2023-04-02T04:35:35;101570.06;;;7.51;100.00
66668;BME280;57205;51.438;-2.006;2023-04-02T04:40:44;101576.63;;;7.49;100.00
66668;BME280;57205;51.438;-2.006;2023-04-02T04:43:32;101579.88;;;7.51;100.00
66668;BME280;57205;51.438;-2.006;2023-04-02T04:46:12;101580.09;;;7.49;100.00
66668;BME280;57205;51.438;-2.006;2023-04-02T04:48:52;101580.09;;;7.49;100.00
66668;BME280;57205;51.438;-2.006;2023-04-02T04:51:50;101583.00;;;7.48;100.00
66668;BME280;57205;51.438;-2.006;2023-04-02T04:54:18;101587.50;;;7.47;100.00
66668;BME280;57205;51.438;-2.006;2023-04-02T04:56:48;101603.06;;;7.50;100.00
66668;BME280;57205;51.438;-2.006;2023-04-02T04:59:21;101605.53;;;7.45;100.00
66668;BME280;57205;51.438;-2.006;2023-04-02T05:01:59;101605.34;;;7.47;100.00
66668;BME280;57205;51.438;-2.006;2023-04-02T05:04:42;101608.38;;;7.50;100.00
66668;BME280;57205;51.438;-2.006;2023-04-02T05:07:24;101610.88;;;7.45;100.00
66668;BME280;57205;51.438;-2.006;2023-04-02T05:10:29;101625.00;;;7.46;100.00
66668;BME280;57205;51.438;-2.006;2023-04-02T05:13:02;101625.59;;;7.48;100.00
66668;BME280;57205;51.438;-2.006;2023-04-02T05:15:40;101627.44;;;7.47;100.00
66668;BME280;57205;51.438;-2.006;2023-04-02T05:18:17;101626.44;;;7.48;100.00
66668;BME280;57205;51.438;-2.006;2023-04-02T05:23:44;101643.19;;;7.49;100.00
66668;BME280;57205;51.438;-2.006;2023-04-02T05:26:18;101649.34;;;7.49;100.00
66668;BME280;57205;51.438;-2.006;2023-04-02T05:29:40;101650.16;;;7.50;100.00
66668;BME280;57205;51.438;-2.006;2023-04-02T05:32:15;101655.72;;;7.48;100.00
66668;BME280;57205;51.438;-2.006;2023-04-02T05:34:45;101657.09;;;7.51;100.00
66668;BME280;57205;51.438;-2.006;2023-04-02T05:37:17;101662.44;;;7.51;100.00
66668;BME280;57205;51.438;-2.006;2023-04-02T05:39:44;101668.22;;;7.48;100.00
66668;BME280;57205;51.438;-2.006;2023-04-02T05:42:17;101667.59;;;7.46;100.00
66668;BME280;57205;51.438;-2.006;2023-04-02T05:47:39;101687.28;;;7.45;100.00
66668;BME280;57205;51.438;-2.006;2023-04-02T05:53:38;101696.44;;;7.49;100.00
66668;BME280;57205;51.438;-2.006;2023-04-02T05:56:10;101694.84;;;7.48;100.00
66668;BME280;57205;51.438;-2.006;2023-04-02T05:58:41;101705.50;;;7.48;100.00
66668;BME280;57205;51.438;-2.006;2023-04-02T06:01:32;101702.59;;;7.49;100.00
66668;BME280;57205;51.438;-2.006;2023-04-02T06:04:24;101711.19;;;7.51;100.00
66668;BME280;57205;51.438;-2.006;2023-04-02T06:07:02;101713.84;;;7.51;100.00
66668;BME280;57205;51.438;-2.006;2023-04-02T06:12:56;101707.72;;;7.51;100.00
66668;BME280;57205;51.438;-2.006;2023-04-02T06:15:28;101714.69;;;7.52;100.00
66668;BME280;57205;51.438;-2.006;2023-04-02T06:18:14;101712.25;;;7.50;100.00
66668;BME280;57205;51.438;-2.006;2023-04-02T06:20:42;101708.53;;;7.51;100.00
66668;BME280;57205;51.438;-2.006;2023-04-02T06:28:27;101728.75;;;7.59;100.00
66668;BME280;57205;51.438;-2.006;2023-04-02T06:31:00;101725.72;;;7.55;100.00
66668;BME280;57205;51.438;-2.006;2023-04-02T06:33:29;101737.78;;;7.58;100.00
66668;BME280;57205;51.438;-2.006;2023-04-02T06:35:55;101738.81;;;7.57;100.00
66668;BME280;57205;51.438;-2.006;2023-04-02T06:38:27;101743.13;;;7.58;100.00
66668;BME280;57205;51.438;-2.006;2023-04-02T06:41:01;101753.78;;;7.58;100.00
66668;BME280;57205;51.438;-2.006;2023-04-02T06:43:34;101756.44;;;7.58;100.00
66668;BME280;57205;51.438;-2.006;2023-04-02T06:46:08;101766.47;;;7.56;100.00
66668;BME280;57205;51.438;-2.006;2023-04-02T06:48:36;101765.44;;;7.57;100.00
66668;BME280;57205;51.438;-2.006;2023-04-02T06:51:08;101769.78;;;7.51;100.00
66668;BME280;57205;51.438;-2.006;2023-04-02T06:53:42;101781.25;;;7.52;100.00
66668;BME280;57205;51.438;-2.006;2023-04-02T06:59:02;101784.25;;;7.62;100.00
66668;BME280;57205;51.438;-2.006;2023-04-02T07:01:36;101784.06;;;7.57;100.00
66668;BME280;57205;51.438;-2.006;2023-04-02T07:04:40;101786.50;;;7.65;100.00
66668;BME280;57205;51.438;-2.006;2023-04-02T07:07:05;101792.66;;;7.59;100.00
66668;BME280;57205;51.438;-2.006;2023-04-02T07:09:31;101803.31;;;7.59;100.00
66668;BME280;57205;51.438;-2.006;2023-04-02T07:11:57;101814.19;;;7.57;100.00
66668;BME280;57205;51.438;-2.006;2023-04-02T07:14:22;101821.81;;;7.54;100.00
66668;BME280;57205;51.438;-2.006;2023-04-02T07:16:49;101819.38;;;7.46;100.00
66668;BME280;57205;51.438;-2.006;2023-04-02T07:19:18;101822.28;;;7.38;100.00
66668;BME280;57205;51.438;-2.006;2023-04-02T07:21:45;101826.22;;;7.35;100.00
66668;BME280;57205;51.438;-2.006;2023-04-02T07:24:10;101824.41;;;7.29;100.00
66668;BME280;57205;51.438;-2.006;2023-04-02T07:26:36;101833.00;;;7.31;100.00
66668;BME280;57205;51.438;-2.006;2023-04-02T07:29:06;101830.56;;;7.30;100.00
66668;BME280;57205;51.438;-2.006;2023-04-02T07:31:31;101842.41;;;7.34;100.00
66668;BME280;57205;51.438;-2.006;2023-04-02T07:33:58;101839.91;;;7.39;100.00
66668;BME280;57205;51.438;-2.006;2023-04-02T07:36:27;101836.22;;;7.40;100.00
66668;BME280;57205;51.438;-2.006;2023-04-02T07:38:53;101837.81;;;7.47;100.00
66668;BME280;57205;51.438;-2.006;2023-04-02T07:41:19;101844.94;;;7.53;100.00
66668;BME280;57205;51.438;-2.006;2023-04-02T07:43:46;101853.69;;;7.67;100.00
66668;BME280;57205;51.438;-2.006;2023-04-02T07:46:13;101842.56;;;7.76;100.00
66668;BME280;57205;51.438;-2.006;2023-04-02T07:48:41;101851.03;;;7.91;100.00
66668;BME280;57205;51.438;-2.006;2023-04-02T07:51:19;101862.56;;;8.10;100.00
66668;BME280;57205;51.438;-2.006;2023-04-02T07:53:45;101864.38;;;8.16;100.00
66668;BME280;57205;51.438;-2.006;2023-04-02T07:56:24;101865.94;;;8.30;100.00
66668;BME280;57205;51.438;-2.006;2023-04-02T07:58:49;101877.78;;;8.34;100.00
66668;BME280;57205;51.438;-2.006;2023-04-02T08:01:24;101873.06;;;8.36;100.00
66668;BME280;57205;51.438;-2.006;2023-04-02T08:03:51;101869.22;;;8.32;100.00
66668;BME280;57205;51.438;-2.006;2023-04-02T08:06:29;101872.69;;;8.33;100.00
66668;BME280;57205;51.438;-2.006;2023-04-02T08:08:56;101873.72;;;8.32;100.00
66668;BME280;57205;51.438;-2.006;2023-04-02T08:11:23;101876.63;;;8.30;100.00
66668;BME280;57205;51.438;-2.006;2023-04-02T08:13:48;101882.16;;;8.29;100.00
66668;BME280;57205;51.438;-2.006;2023-04-02T08:16:14;101882.81;;;8.24;100.00
66668;BME280;57205;51.438;-2.006;2023-04-02T08:18:40;101884.84;;;8.22;100.00
66668;BME280;57205;51.438;-2.006;2023-04-02T08:21:07;101885.56;;;8.11;100.00
66668;BME280;57205;51.438;-2.006;2023-04-02T08:23:37;101882.16;;;7.98;100.00
66668;BME280;57205;51.438;-2.006;2023-04-02T08:26:03;101884.69;;;7.86;100.00
66668;BME280;57205;51.438;-2.006;2023-04-02T08:28:29;101897.69;;;7.76;100.00
66668;BME280;57205;51.438;-2.006;2023-04-02T08:30:54;101896.69;;;7.70;100.00
66668;BME280;57205;51.438;-2.006;2023-04-02T08:33:20;101903.25;;;7.68;100.00
66668;BME280;57205;51.438;-2.006;2023-04-02T08:35:47;101912.03;;;7.75;100.00
66668;BME280;57205;51.438;-2.006;2023-04-02T08:38:16;101922.28;;;7.71;100.00
66668;BME280;57205;51.438;-2.006;2023-04-02T08:40:44;101917.72;;;7.78;100.00
66668;BME280;57205;51.438;-2.006;2023-04-02T08:46:17;101913.84;;;7.81;100.00
66668;BME280;57205;51.438;-2.006;2023-04-02T08:48:55;101920.81;;;7.82;100.00
66668;BME280;57205;51.438;-2.006;2023-04-02T08:51:29;101908.66;;;7.86;100.00
66668;BME280;57205;51.438;-2.006;2023-04-02T08:54:04;101913.84;;;7.81;100.00
66668;BME280;57205;51.438;-2.006;2023-04-02T08:56:40;101910.66;;;7.97;100.00
66668;BME280;57205;51.438;-2.006;2023-04-02T09:02:00;101926.38;;;8.36;100.00
66668;BME280;57205;51.438;-2.006;2023-04-02T09:04:27;101917.53;;;8.42;100.00
66668;BME280;57205;51.438;-2.006;2023-04-02T09:06:55;101926.47;;;8.54;100.00
66668;BME280;57205;51.438;-2.006;2023-04-02T09:09:23;101933.19;;;8.81;100.00
66668;BME280;57205;51.438;-2.006;2023-04-02T09:11:55;101928.44;;;9.56;100.00
66668;BME280;57205;51.438;-2.006;2023-04-02T09:14:52;101929.22;;;10.57;100.00
66668;BME280;57205;51.438;-2.006;2023-04-02T09:17:24;101928.84;;;11.00;100.00
66668;BME280;57205;51.438;-2.006;2023-04-02T09:22:37;101953.53;;;11.02;100.00
66668;BME280;57205;51.438;-2.006;2023-04-02T09:25:10;101949.25;;;10.77;100.00
66668;BME280;57205;51.438;-2.006;2023-04-02T09:27:36;101953.88;;;10.70;100.00
66668;BME280;57205;51.438;-2.006;2023-04-02T09:33:01;101954.09;;;10.05;100.00
66668;BME280;57205;51.438;-2.006;2023-04-02T09:35:33;101960.91;;;9.71;100.00
66668;BME280;57205;51.438;-2.006;2023-04-02T09:38:22;101985.56;;;9.73;100.00
66668;BME280;57205;51.438;-2.006;2023-04-02T09:43:22;101982.78;;;9.32;100.00
66668;BME280;57205;51.438;-2.006;2023-04-02T09:50:46;101982.31;;;9.17;100.00
66668;BME280;57205;51.438;-2.006;2023-04-02T09:53:30;101989.06;;;9.19;100.00
66668;BME280;57205;51.438;-2.006;2023-04-02T09:58:39;101998.06;;;8.82;100.00
66668;BME280;57205;51.438;-2.006;2023-04-02T10:01:05;102016.97;;;8.80;100.00
66668;BME280;57205;51.438;-2.006;2023-04-02T10:03:33;102010.03;;;8.73;100.00
66668;BME280;57205;51.438;-2.006;2023-04-02T10:06:04;102018.59;;;8.81;100.00
66668;BME280;57205;51.438;-2.006;2023-04-02T10:08:30;102020.59;;;8.86;100.00
66668;BME280;57205;51.438;-2.006;2023-04-02T10:11:01;102019.78;;;9.10;100.00
66668;BME280;57205;51.438;-2.006;2023-04-02T10:13:42;102027.13;;;9.33;100.00
66668;BME280;57205;51.438;-2.006;2023-04-02T10:16:11;102030.72;;;9.45;100.00
66668;BME280;57205;51.438;-2.006;2023-04-02T10:21:44;102034.28;;;9.75;100.00
66668;BME280;57205;51.438;-2.006;2023-04-02T10:24:14;102031.38;;;9.76;100.00
66668;BME280;57205;51.438;-2.006;2023-04-02T10:26:50;102039.03;;;9.73;100.00
66668;BME280;57205;51.438;-2.006;2023-04-02T10:40:09;102049.69;;;8.94;100.00
66668;BME280;57205;51.438;-2.006;2023-04-02T10:45:30;102063.03;;;9.19;100.00
66668;BME280;57205;51.438;-2.006;2023-04-02T10:48:24;102065.78;;;9.30;100.00
66668;BME280;57205;51.438;-2.006;2023-04-02T10:51:43;102076.56;;;9.42;100.00
66668;BME280;57205;51.438;-2.006;2023-04-02T10:54:01;102078.19;;;9.43;100.00
66668;BME280;57205;51.438;-2.006;2023-04-02T10:56:28;102085.09;;;9.32;100.00
66668;BME280;57205;51.438;-2.006;2023-04-02T11:01:42;102079.91;;;9.13;100.00
66668;BME280;57205;51.438;-2.006;2023-04-02T11:04:20;102090.44;;;9.08;100.00
66668;BME280;57205;51.438;-2.006;2023-04-02T11:06:52;102096.81;;;9.07;100.00
66668;BME280;57205;51.438;-2.006;2023-04-02T11:09:26;102082.06;;;9.04;100.00
66668;BME280;57205;51.438;-2.006;2023-04-02T11:11:55;102078.72;;;9.09;100.00
66668;BME280;57205;51.438;-2.006;2023-04-02T11:14:29;102097.59;;;9.14;100.00
66668;BME280;57205;51.438;-2.006;2023-04-02T11:16:57;102095.00;;;9.25;100.00
66668;BME280;57205;51.438;-2.006;2023-04-02T11:22:03;102114.63;;;9.37;100.00
66668;BME280;57205;51.438;-2.006;2023-04-02T11:27:25;102104.78;;;9.13;100.00
66668;BME280;57205;51.438;-2.006;2023-04-02T11:32:41;102109.63;;;9.23;100.00
66668;BME280;57205;51.438;-2.006;2023-04-02T11:38:00;102116.44;;;9.19;100.00
66668;BME280;57205;51.438;-2.006;2023-04-02T11:40:47;102126.75;;;9.40;100.00
66668;BME280;57205;51.438;-2.006;2023-04-02T11:48:32;102126.00;;;9.51;100.00
66668;BME280;57205;51.438;-2.006;2023-04-02T11:51:45;102128.38;;;9.59;100.00
66668;BME280;57205;51.438;-2.006;2023-04-02T11:53:48;102141.66;;;9.90;100.00
66668;BME280;57205;51.438;-2.006;2023-04-02T11:56:26;102133.78;;;9.77;100.00
66668;BME280;57205;51.438;-2.006;2023-04-02T11:59:26;102142.81;;;9.76;100.00
66668;BME280;57205;51.438;-2.006;2023-04-02T12:02:09;102139.25;;;9.82;99.70
66668;BME280;57205;51.438;-2.006;2023-04-02T12:05:05;102140.59;;;9.91;100.00
66668;BME280;57205;51.438;-2.006;2023-04-02T12:10:19;102143.50;;;9.90;100.00
66668;BME280;57205;51.438;-2.006;2023-04-02T12:12:48;102148.63;;;9.91;100.00
66668;BME280;57205;51.438;-2.006;2023-04-02T12:15:43;102156.88;;;9.90;100.00
66668;BME280;57205;51.438;-2.006;2023-04-02T12:18:12;102150.56;;;10.02;100.00
66668;BME280;57205;51.438;-2.006;2023-04-02T12:20:38;102159.31;;;9.91;100.00
66668;BME280;57205;51.438;-2.006;2023-04-02T12:23:04;102155.06;;;10.02;100.00
66668;BME280;57205;51.438;-2.006;2023-04-02T12:25:32;102152.34;;;9.90;100.00
66668;BME280;57205;51.438;-2.006;2023-04-02T12:30:42;102161.75;;;9.74;100.00
66668;BME280;57205;51.438;-2.006;2023-04-02T12:33:16;102171.63;;;9.74;99.92
66668;BME280;57205;51.438;-2.006;2023-04-02T12:35:42;102169.44;;;9.64;100.00
66668;BME280;57205;51.438;-2.006;2023-04-02T12:38:30;102163.00;;;9.72;100.00
66668;BME280;57205;51.438;-2.006;2023-04-02T12:40:58;102167.19;;;9.68;100.00
66668;BME280;57205;51.438;-2.006;2023-04-02T12:43:35;102165.78;;;9.83;97.22
66668;BME280;57205;51.438;-2.006;2023-04-02T12:46:04;102156.56;;;9.79;98.10
66668;BME280;57205;51.438;-2.006;2023-04-02T12:48:32;102168.81;;;9.69;97.15
66668;BME280;57205;51.438;-2.006;2023-04-02T12:51:00;102166.41;;;9.61;98.28
66668;BME280;57205;51.438;-2.006;2023-04-02T12:53:34;102174.72;;;9.53;99.04
66668;BME280;57205;51.438;-2.006;2023-04-02T12:56:00;102168.16;;;9.49;97.39
66668;BME280;57205;51.438;-2.006;2023-04-02T12:58:54;102169.78;;;9.50;97.97
66668;BME280;57205;51.438;-2.006;2023-04-02T13:01:25;102164.66;;;9.48;98.91
66668;BME280;57205;51.438;-2.006;2023-04-02T13:04:10;102176.00;;;9.44;98.90
66668;BME280;57205;51.438;-2.006;2023-04-02T13:06:45;102173.00;;;9.34;98.13
66668;BME280;57205;51.438;-2.006;2023-04-02T13:09:33;102170.13;;;9.35;99.86
66668;BME280;57205;51.438;-2.006;2023-04-02T13:12:00;102166.81;;;9.40;100.00
66668;BME280;57205;51.438;-2.006;2023-04-02T13:14:26;102164.91;;;9.47;100.00
66668;BME280;57205;51.438;-2.006;2023-04-02T13:16:52;102162.16;;;9.53;99.22
66668;BME280;57205;51.438;-2.006;2023-04-02T13:19:31;102166.56;;;9.66;95.48
66668;BME280;57205;51.438;-2.006;2023-04-02T13:21:59;102162.47;;;9.63;94.98
66668;BME280;57205;51.438;-2.006;2023-04-02T13:24:27;102163.44;;;9.69;94.35
66668;BME280;57205;51.438;-2.006;2023-04-02T13:26:56;102162.41;;;9.70;93.63
66668;BME280;57205;51.438;-2.006;2023-04-02T13:29:30;102154.34;;;9.76;93.05
66668;BME280;57205;51.438;-2.006;2023-04-02T13:31:59;102146.22;;;9.65;90.89
66668;BME280;57205;51.438;-2.006;2023-04-02T13:34:25;102161.13;;;9.54;94.23
66668;BME280;57205;51.438;-2.006;2023-04-02T13:36:50;102159.97;;;9.44;96.42
66668;BME280;57205;51.438;-2.006;2023-04-02T13:39:16;102159.66;;;9.34;95.58
66668;BME280;57205;51.438;-2.006;2023-04-02T13:41:47;102158.00;;;9.33;95.26
66668;BME280;57205;51.438;-2.006;2023-04-02T13:46:43;102157.28;;;9.44;93.60
66668;BME280;57205;51.438;-2.006;2023-04-02T13:49:26;102158.94;;;9.69;90.92
66668;BME280;57205;51.438;-2.006;2023-04-02T13:51:54;102158.25;;;9.74;87.30
66668;BME280;57205;51.438;-2.006;2023-04-02T13:54:42;102153.59;;;9.69;85.74
66668;BME280;57205;51.438;-2.006;2023-04-02T13:57:14;102148.75;;;9.78;85.48
66668;BME280;57205;51.438;-2.006;2023-04-02T13:59:39;102152.63;;;9.82;86.23
66668;BME280;57205;51.438;-2.006;2023-04-02T14:02:08;102152.50;;;9.77;89.73
66668;BME280;57205;51.438;-2.006;2023-04-02T14:04:48;102151.56;;;9.83;88.83
66668;BME280;57205;51.438;-2.006;2023-04-02T14:21:16;102131.50;;;10.46;83.68
66668;BME280;57205;51.438;-2.006;2023-04-02T14:37:09;102126.03;;;10.71;82.37
66668;BME280;57205;51.438;-2.006;2023-04-02T14:39:48;102127.16;;;10.63;81.01
66668;BME280;57205;51.438;-2.006;2023-04-02T14:42:20;102126.84;;;10.42;78.98
66668;BME280;57205;51.438;-2.006;2023-04-02T14:44:56;102123.53;;;10.28;80.13
66668;BME280;57205;51.438;-2.006;2023-04-02T14:47:29;102123.16;;;10.25;79.75
66668;BME280;57205;51.438;-2.006;2023-04-02T14:50:10;102112.94;;;10.22;81.28
66668;BME280;57205;51.438;-2.006;2023-04-02T14:52:37;102108.38;;;10.22;80.05
66668;BME280;57205;51.438;-2.006;2023-04-02T14:55:11;102102.84;;;10.35;80.24
66668;BME280;57205;51.438;-2.006;2023-04-02T14:57:44;102104.69;;;10.53;79.45
66668;BME280;57205;51.438;-2.006;2023-04-02T15:02:53;102102.56;;;10.85;80.93
66668;BME280;57205;51.438;-2.006;2023-04-02T15:05:48;102107.34;;;10.82;80.83
66668;BME280;57205;51.438;-2.006;2023-04-02T15:11:45;102105.09;;;10.68;78.59
66668;BME280;57205;51.438;-2.006;2023-04-02T15:14:27;102099.56;;;10.63;79.57
66668;BME280;57205;51.438;-2.006;2023-04-02T15:16:56;102111.09;;;10.63;80.95
66668;BME280;57205;51.438;-2.006;2023-04-02T15:19:21;102105.41;;;10.60;79.99
66668;BME280;57205;51.438;-2.006;2023-04-02T15:31:11;102099.28;;;10.82;80.63
66668;BME280;57205;51.438;-2.006;2023-04-02T15:36:42;102103.53;;;10.60;82.54
66668;BME280;57205;51.438;-2.006;2023-04-02T15:38:55;102111.34;;;10.62;81.06
66668;BME280;57205;51.438;-2.006;2023-04-02T15:41:40;102106.22;;;10.60;78.67
66668;BME280;57205;51.438;-2.006;2023-04-02T15:44:14;102108.19;;;10.65;79.22
66668;BME280;57205;51.438;-2.006;2023-04-02T15:55:48;102110.63;;;10.66;79.31
66668;BME280;57205;51.438;-2.006;2023-04-02T15:58:40;102107.22;;;10.77;79.15
66668;BME280;57205;51.438;-2.006;2023-04-02T16:01:35;102106.28;;;10.83;76.67
66668;BME280;57205;51.438;-2.006;2023-04-02T16:12:49;102100.91;;;10.83;78.34
66668;BME280;57205;51.438;-2.006;2023-04-02T16:15:21;102112.91;;;10.81;78.83
66668;BME280;57205;51.438;-2.006;2023-04-02T16:18:00;102122.31;;;10.72;77.63
66668;BME280;57205;51.438;-2.006;2023-04-02T16:20:33;102123.22;;;10.66;79.14
66668;BME280;57205;51.438;-2.006;2023-04-02T16:23:09;102122.88;;;10.62;78.79
66668;BME280;57205;51.438;-2.006;2023-04-02T16:26:01;102124.25;;;10.65;79.00